Time;durP1;ratioP1;P1;durP2;ratioP2;P2;SDS_P1;SDS_P2;PMS_P1;PMS_P2;Temp;Humidity;BMP_temperature;BMP_pressure;BME280_temperature;BME280_humidity;BME280_pressure;Samples;Min_cycle;Max_cycle;Signal;HPM_P1;HPM_P2
2023/02/02 00:00:17;;;;;;;14.77;7.35;;;5.30;99.90;;;;;;5078907;28;20420;-58
2023/02/02 00:02:44;;;;;;;16.75;7.63;;;5.20;99.90;;;;;;5079773;28;20421;-58
2023/02/02 00:05:11;;;;;;;13.30;7.10;;;5.20;99.90;;;;;;5082331;28;20884;-55
2023/02/02 00:07:37;;;;;;;15.45;6.93;;;5.30;99.90;;;;;;5082813;28;20411;-59
2023/02/02 00:10:04;;;;;;;14.38;6.90;;;5.30;99.90;;;;;;5082664;28;20411;-58
2023/02/02 00:12:32;;;;;;;14.70;8.10;;;5.30;99.90;;;;;;5085262;28;20406;-61
2023/02/02 00:14:59;;;;;;;19.65;8.60;;;5.30;99.90;;;;;;5084019;28;20425;-60
2023/02/02 00:17:26;;;;;;;15.95;8.75;;;5.40;99.90;;;;;;5082004;28;20910;-57
2023/02/02 00:19:52;;;;;;;18.60;8.45;;;5.40;99.90;;;;;;5085815;28;20466;-60
2023/02/02 00:22:19;;;;;;;16.97;8.77;;;5.40;99.90;;;;;;5082592;28;20436;-58
2023/02/02 00:24:46;;;;;;;23.50;10.90;;;5.30;99.90;;;;;;5078643;28;20415;-60
2023/02/02 00:27:12;;;;;;;22.38;10.85;;;5.40;99.90;;;;;;5083822;28;20411;-58
2023/02/02 00:29:40;;;;;;;23.93;11.53;;;5.30;99.90;;;;;;5081607;28;20445;-58
2023/02/02 00:32:07;;;;;;;21.77;10.65;;;5.30;99.90;;;;;;5084034;28;20402;-60
2023/02/02 00:34:34;;;;;;;21.58;9.48;;;5.30;99.90;;;;;;5084693;28;20429;-58
2023/02/02 00:37:00;;;;;;;20.45;9.10;;;5.30;99.90;;;;;;5084276;28;20483;-58
2023/02/02 00:39:28;;;;;;;16.47;7.87;;;5.40;99.90;;;;;;5083753;28;20417;-60
2023/02/02 00:41:55;;;;;;;16.08;7.13;;;5.50;99.90;;;;;;5081715;28;20449;-59
2023/02/02 00:47:07;;;;;;;16.80;5.53;;;5.50;99.90;;;;;;5080009;28;20379;-60
2023/02/02 00:49:34;;;;;;;15.45;5.70;;;5.50;99.90;;;;;;5082203;28;20514;-60
2023/02/02 00:52:00;;;;;;;15.32;5.07;;;5.40;99.90;;;;;;5082224;28;20411;-55
2023/02/02 00:54:28;;;;;;;17.67;5.13;;;5.50;99.90;;;;;;5082246;28;20408;-54
2023/02/02 00:56:54;;;;;;;15.38;4.68;;;5.50;99.90;;;;;;5083944;28;20425;-60
2023/02/02 00:59:21;;;;;;;15.18;4.78;;;5.50;99.90;;;;;;5082394;28;20892;-60
2023/02/02 01:01:48;;;;;;;15.40;4.93;;;5.50;99.90;;;;;;5083727;28;20409;-60
2023/02/02 01:04:16;;;;;;;12.35;3.78;;;5.40;99.90;;;;;;5081356;28;20882;-58
2023/02/02 01:06:44;;;;;;;11.90;3.92;;;5.50;99.90;;;;;;5080843;28;21221;-60
2023/02/02 01:09:11;;;;;;;9.18;3.58;;;5.70;99.90;;;;;;5077961;28;20403;-60
2023/02/02 01:11:37;;;;;;;11.38;3.28;;;5.70;99.90;;;;;;5082336;28;20804;-60
2023/02/02 01:14:05;;;;;;;11.45;3.53;;;5.70;99.90;;;;;;5084122;28;20471;-58
2023/02/02 01:16:32;;;;;;;11.32;3.30;;;5.80;99.90;;;;;;5082709;28;20850;-59
2023/02/02 01:18:58;;;;;;;10.73;4.15;;;5.80;99.90;;;;;;5081637;28;20476;-57
2023/02/02 01:21:26;;;;;;;12.82;4.72;;;5.80;99.90;;;;;;5078007;28;20403;-56
2023/02/02 01:23:54;;;;;;;11.98;4.07;;;5.80;99.90;;;;;;5082071;28;20407;-58
2023/02/02 01:26:21;;;;;;;12.15;3.60;;;5.90;99.90;;;;;;5080669;28;20412;-60
2023/02/02 01:28:47;;;;;;;11.27;3.63;;;5.90;99.90;;;;;;5084498;28;20416;-57
2023/02/02 01:31:16;;;;;;;13.10;3.90;;;6.00;99.90;;;;;;5080718;28;20423;-59
2023/02/02 01:33:44;;;;;;;13.97;4.13;;;6.10;99.90;;;;;;5082696;28;20498;-57
2023/02/02 01:36:12;;;;;;;13.00;4.45;;;6.10;99.90;;;;;;5083055;28;20413;-58
2023/02/02 01:38:41;;;;;;;13.50;4.68;;;6.10;99.90;;;;;;5077518;28;20427;-58
2023/02/02 01:41:08;;;;;;;12.23;4.70;;;6.10;99.90;;;;;;5081341;28;20906;-57
2023/02/02 01:43:56;;;;;;;16.63;4.87;;;6.20;99.90;;;;;;5082898;28;20406;-58
2023/02/02 01:46:25;;;;;;;17.55;6.03;;;6.30;99.90;;;;;;5077801;28;20404;-60
2023/02/02 01:48:56;;;;;;;17.27;6.65;;;6.30;99.90;;;;;;5079552;28;20398;-58
2023/02/02 01:51:26;;;;;;;24.27;8.90;;;6.20;99.90;;;;;;5078228;28;20418;-57
2023/02/02 01:53:56;;;;;;;21.73;9.30;;;6.30;99.90;;;;;;5080729;28;20469;-58
2023/02/02 01:56:27;;;;;;;20.50;9.20;;;6.30;99.90;;;;;;5082394;28;20418;-57
2023/02/02 01:58:54;;;;;;;25.83;9.67;;;6.40;99.90;;;;;;5081970;28;20513;-60
2023/02/02 02:01:21;;;;;;;30.08;10.77;;;6.40;99.90;;;;;;5081742;28;20446;-60
2023/02/02 02:03:48;;;;;;;29.23;11.63;;;6.40;99.90;;;;;;5077821;28;20422;-58
2023/02/02 02:06:18;;;;;;;26.98;12.02;;;6.40;99.90;;;;;;5084004;28;20463;-59
2023/02/02 02:08:51;;;;;;;27.23;11.85;;;6.40;99.90;;;;;;5082815;28;20861;-57
2023/02/02 02:11:19;;;;;;;30.40;12.45;;;6.40;99.90;;;;;;5077559;28;20414;-60
2023/02/02 02:16:52;;;;;;;33.13;12.48;;;6.50;99.90;;;;;;4982225;28;20398;-59
2023/02/02 02:29:11;;;;;;;34.70;13.77;;;6.50;99.90;;;;;;5045839;28;20417;-57
2023/02/02 02:32:01;;;;;;;35.60;13.23;;;6.50;99.90;;;;;;5081969;28;20413;-59
2023/02/02 02:34:35;;;;;;;34.00;12.48;;;6.50;99.90;;;;;;5077587;28;20416;-60
2023/02/02 02:37:10;;;;;;;31.63;12.15;;;6.60;99.90;;;;;;5079352;28;20491;-59
2023/02/02 02:39:42;;;;;;;29.35;11.63;;;6.70;99.90;;;;;;5079937;28;20913;-57
2023/02/02 02:42:14;;;;;;;25.13;10.80;;;6.70;99.90;;;;;;5077669;28;20411;-57
2023/02/02 02:44:41;;;;;;;27.98;10.70;;;6.70;99.90;;;;;;5079637;28;20411;-60
2023/02/02 02:47:10;;;;;;;31.73;9.93;;;6.70;99.90;;;;;;5081498;28;20416;-61
2023/02/02 02:49:43;;;;;;;23.83;9.57;;;6.80;99.90;;;;;;5082238;28;20572;-60
2023/02/02 02:52:09;;;;;;;30.33;9.73;;;6.70;99.90;;;;;;5078048;28;20853;-59
2023/02/02 02:54:39;;;;;;;26.55;9.65;;;6.70;99.90;;;;;;5083417;28;20416;-58
2023/02/02 02:57:25;;;;;;;28.25;9.18;;;6.70;99.90;;;;;;5077165;28;20521;-58
2023/02/02 02:59:59;;;;;;;26.83;8.77;;;6.70;99.90;;;;;;5077447;28;20468;-56
2023/02/02 03:02:36;;;;;;;21.33;8.18;;;6.60;99.90;;;;;;5079229;28;20411;-57
2023/02/02 03:05:23;;;;;;;27.27;8.85;;;6.60;99.90;;;;;;5079380;28;20496;-56
2023/02/02 03:07:56;;;;;;;19.20;6.55;;;6.40;99.90;;;;;;5079363;28;20465;-57
2023/02/02 03:10:26;;;;;;;25.30;6.53;;;6.40;99.90;;;;;;5080413;28;20419;-56
2023/02/02 03:12:54;;;;;;;17.30;6.03;;;6.20;99.90;;;;;;5081738;28;20827;-58
2023/02/02 03:15:21;;;;;;;16.27;4.85;;;6.30;99.90;;;;;;5080865;28;20965;-59
2023/02/02 03:17:51;;;;;;;18.92;5.25;;;6.30;99.90;;;;;;5079365;28;20430;-58
2023/02/02 03:20:18;;;;;;;16.00;3.92;;;6.30;99.90;;;;;;5080385;28;20414;-60
2023/02/02 03:22:44;;;;;;;14.75;3.72;;;6.30;99.90;;;;;;5081449;28;20490;-58
2023/02/02 03:25:11;;;;;;;14.40;3.88;;;6.20;99.90;;;;;;5079880;28;20419;-58
2023/02/02 03:27:39;;;;;;;11.88;3.10;;;6.20;99.90;;;;;;5081194;28;20413;-60
2023/02/02 03:30:09;;;;;;;15.90;3.70;;;6.20;99.90;;;;;;5078014;28;20413;-58
2023/02/02 03:32:36;;;;;;;13.80;3.40;;;6.30;99.90;;;;;;5081205;28;20505;-59
2023/02/02 03:35:05;;;;;;;12.50;3.30;;;6.20;99.90;;;;;;5079037;28;20407;-60
2023/02/02 03:37:32;;;;;;;13.40;3.28;;;6.20;99.90;;;;;;5079907;28;20426;-60
2023/02/02 03:39:59;;;;;;;12.15;3.70;;;6.30;99.90;;;;;;5084337;28;20953;-58
2023/02/02 03:42:26;;;;;;;12.98;4.18;;;6.10;99.90;;;;;;5083612;28;20415;-59
2023/02/02 03:44:52;;;;;;;17.35;4.50;;;6.10;99.90;;;;;;5083410;28;20788;-59
2023/02/02 03:47:19;;;;;;;14.77;4.40;;;6.10;99.90;;;;;;5085218;28;20749;-58
2023/02/02 03:49:46;;;;;;;16.47;5.40;;;6.20;99.90;;;;;;5083188;28;20834;-60
2023/02/02 03:52:14;;;;;;;17.55;6.35;;;6.20;99.90;;;;;;5085217;28;20471;-60
2023/02/02 03:54:40;;;;;;;20.97;6.63;;;6.20;99.90;;;;;;5083709;28;20411;-59
2023/02/02 03:57:07;;;;;;;18.48;8.32;;;6.20;99.90;;;;;;5086494;28;20406;-58
2023/02/02 03:59:33;;;;;;;22.63;8.82;;;6.30;99.90;;;;;;5082520;28;20439;-56
2023/02/02 04:02:00;;;;;;;24.27;9.00;;;6.30;99.90;;;;;;5083713;28;20496;-60
2023/02/02 04:04:27;;;;;;;20.10;9.18;;;6.30;99.90;;;;;;5085133;28;20410;-60
2023/02/02 04:06:53;;;;;;;20.80;9.82;;;6.30;99.90;;;;;;5082698;28;20878;-59
2023/02/02 04:09:21;;;;;;;25.50;10.07;;;6.40;99.90;;;;;;5086055;28;20432;-60
2023/02/02 04:11:48;;;;;;;21.70;9.88;;;6.40;99.90;;;;;;5079242;28;20407;-57
2023/02/02 04:14:15;;;;;;;20.88;9.90;;;6.50;99.90;;;;;;5083236;28;20461;-60
2023/02/02 04:16:42;;;;;;;21.65;10.40;;;6.40;99.90;;;;;;5084550;28;20414;-58
2023/02/02 04:19:09;;;;;;;22.55;11.18;;;6.30;99.90;;;;;;5081162;28;20414;-59
2023/02/02 04:21:35;;;;;;;20.55;10.55;;;6.40;99.90;;;;;;5084584;28;20896;-56
2023/02/02 04:24:02;;;;;;;23.40;11.57;;;6.50;99.90;;;;;;5084514;28;20896;-59
2023/02/02 04:26:30;;;;;;;30.23;14.02;;;6.60;99.90;;;;;;5083545;28;20992;-58
2023/02/02 04:28:57;;;;;;;26.55;15.00;;;6.60;99.90;;;;;;5082280;28;20458;-59
2023/02/02 04:31:24;;;;;;;26.95;15.15;;;6.60;99.90;;;;;;5083279;28;20441;-57
2023/02/02 04:33:51;;;;;;;33.50;17.20;;;6.60;99.90;;;;;;5081977;28;20453;-58
2023/02/02 04:36:17;;;;;;;33.28;18.88;;;6.60;99.90;;;;;;5083964;28;20414;-57
2023/02/02 04:38:48;;;;;;;45.13;20.83;;;6.70;99.90;;;;;;5083499;28;20973;-60
2023/02/02 04:41:15;;;;;;;43.72;22.65;;;6.60;99.90;;;;;;5077919;28;20444;-57
2023/02/02 04:43:43;;;;;;;50.03;24.25;;;6.60;99.90;;;;;;5082976;28;20488;-60
2023/02/02 04:46:10;;;;;;;48.38;21.13;;;6.60;99.90;;;;;;5084360;28;20414;-59
2023/02/02 04:48:37;;;;;;;48.33;19.60;;;6.70;99.90;;;;;;5083532;28;20830;-60
2023/02/02 04:51:06;;;;;;;44.50;15.73;;;6.70;99.90;;;;;;5083407;28;20764;-59
2023/02/02 04:53:33;;;;;;;39.30;15.30;;;6.70;99.90;;;;;;5082092;28;20902;-56
2023/02/02 04:56:05;;;;;;;45.65;14.90;;;6.70;99.90;;;;;;5082491;28;20419;-60
2023/02/02 04:58:32;;;;;;;38.47;13.97;;;6.70;99.90;;;;;;5077911;28;20575;-56
2023/02/02 05:01:00;;;;;;;32.38;12.38;;;6.70;99.90;;;;;;5083147;28;20414;-57
2023/02/02 05:03:27;;;;;;;39.58;13.35;;;6.70;99.90;;;;;;5081139;28;20411;-59
2023/02/02 05:06:01;;;;;;;36.10;13.25;;;6.70;99.90;;;;;;5082140;28;20418;-60
2023/02/02 05:08:28;;;;;;;31.02;12.40;;;6.70;99.90;;;;;;5078164;28;20403;-60
2023/02/02 05:10:54;;;;;;;32.92;12.18;;;6.70;99.90;;;;;;5082263;28;20461;-60
2023/02/02 05:13:21;;;;;;;33.20;11.50;;;6.70;99.90;;;;;;5083841;28;20465;-59
2023/02/02 05:15:48;;;;;;;29.60;11.38;;;6.60;99.90;;;;;;5082523;28;20412;-59
2023/02/02 05:18:16;;;;;;;35.85;11.13;;;6.60;99.90;;;;;;5084876;28;20418;-58
2023/02/02 05:20:43;;;;;;;39.30;11.18;;;6.70;99.90;;;;;;5078217;28;20457;-59
2023/02/02 05:23:09;;;;;;;30.20;10.48;;;6.70;99.90;;;;;;5081885;28;20414;-58
2023/02/02 05:25:36;;;;;;;31.42;10.65;;;6.70;99.90;;;;;;5083783;28;20463;-59
2023/02/02 05:28:03;;;;;;;;;;;6.80;99.90;;;;;;5082637;28;20455;-54
2023/02/02 05:30:29;;;;;;;;;;;6.80;99.90;;;;;;5081709;28;20418;-59
2023/02/02 05:32:56;;;;;;;24.33;9.88;;;6.80;99.90;;;;;;5084392;28;20791;-55
2023/02/02 05:35:24;;;;;;;;;;;6.80;99.90;;;;;;5084388;28;20964;-59
2023/02/02 05:37:50;;;;;;;;;;;6.80;99.90;;;;;;5086453;28;20070;-59
2023/02/02 05:40:17;;;;;;;32.97;10.50;;;6.80;99.90;;;;;;5083728;28;20291;-60
2023/02/02 05:42:47;;;;;;;29.52;9.27;;;6.80;99.90;;;;;;5083533;28;20793;-60
2023/02/02 05:45:14;;;;;;;;;;;6.80;99.90;;;;;;5083401;28;20415;-58
2023/02/02 05:47:40;;;;;;;;;;;6.80;99.90;;;;;;5084544;28;20451;-61
2023/02/02 05:50:08;;;;;;;;;;;6.80;99.90;;;;;;5077273;28;19927;-60
2023/02/02 05:52:37;;;;;;;;;;;6.80;99.90;;;;;;5078817;28;20514;-61
2023/02/02 05:55:03;;;;;;;;;;;6.80;99.90;;;;;;5080583;28;19964;-61
2023/02/02 05:57:30;;;;;;;;;;;6.80;99.90;;;;;;5086184;28;19924;-61
2023/02/02 05:59:56;;;;;;;;;;;6.80;99.90;;;;;;5077951;28;19924;-61
2023/02/02 06:02:23;;;;;;;;;;;6.80;99.90;;;;;;5083778;28;19924;-61
2023/02/02 06:04:49;;;;;;;;;;;6.80;99.90;;;;;;5083397;28;19982;-61
2023/02/02 06:07:16;;;;;;;;;;;6.90;99.90;;;;;;5085644;28;19920;-61
2023/02/02 06:09:44;;;;;;;;;;;6.80;99.90;;;;;;5083330;28;19925;-61
2023/02/02 06:12:10;;;;;;;;;;;6.90;99.90;;;;;;5085788;28;19973;-61
2023/02/02 06:14:37;;;;;;;;;;;6.90;99.90;;;;;;5078320;28;20115;-61
2023/02/02 06:17:03;;;;;;;;;;;6.80;99.90;;;;;;5081935;28;19978;-61
2023/02/02 06:19:30;;;;;;;;;;;6.90;99.90;;;;;;5080753;28;20402;-61
2023/02/02 06:21:57;;;;;;;;;;;6.80;99.90;;;;;;5083179;28;20390;-61
2023/02/02 06:24:24;;;;;;;;;;;6.80;99.90;;;;;;5077991;28;19924;-58
2023/02/02 06:26:51;;;;;;;;;;;6.90;99.90;;;;;;5083889;28;19985;-58
2023/02/02 06:29:18;;;;;;;;;;;6.90;99.90;;;;;;5082413;28;19920;-59
2023/02/02 06:31:44;;;;;;;;;;;6.90;99.90;;;;;;5084196;28;20386;-63
2023/02/02 06:34:13;;;;;;;;;;;6.90;99.90;;;;;;5083129;28;19924;-62
2023/02/02 06:36:40;;;;;;;;;;;6.90;99.90;;;;;;5084513;28;19920;-61
2023/02/02 06:39:07;;;;;;;;;;;6.90;99.90;;;;;;5080069;28;19924;-61
2023/02/02 06:41:33;;;;;;;;;;;6.90;99.90;;;;;;5083283;28;20018;-61
2023/02/02 06:44:01;;;;;;;;;;;6.90;99.90;;;;;;5081069;28;19973;-61
2023/02/02 06:46:28;;;;;;;;;;;6.90;99.90;;;;;;5082495;28;19939;-61
2023/02/02 06:48:54;;;;;;;;;;;6.90;99.90;;;;;;5082254;28;19982;-59
2023/02/02 06:51:21;;;;;;;;;;;6.90;99.90;;;;;;5083294;28;19924;-58
2023/02/02 06:53:48;;;;;;;;;;;6.90;99.90;;;;;;5082239;28;19982;-59
2023/02/02 06:56:15;;;;;;;;;;;6.90;99.90;;;;;;5080805;28;20014;-58
2023/02/02 06:58:41;;;;;;;;;;;7.00;99.90;;;;;;5081907;28;19921;-57
2023/02/02 07:01:10;;;;;;;;;;;7.00;99.90;;;;;;5080909;28;19920;-57
2023/02/02 07:03:37;;;;;;;;;;;7.00;99.90;;;;;;5082268;28;19920;-58
2023/02/02 07:06:10;;;;;;;;;;;7.00;99.90;;;;;;5080742;28;19928;-57
2023/02/02 07:08:37;;;;;;;;;;;7.00;99.90;;;;;;5080996;28;20012;-61
2023/02/02 07:11:03;;;;;;;;;;;7.10;99.90;;;;;;5081159;28;19970;-61
2023/02/02 07:13:30;;;;;;;;;;;6.90;99.90;;;;;;5082913;28;19924;-60
2023/02/02 07:15:57;;;;;;;;;;;7.00;99.90;;;;;;5080525;28;20398;-60
2023/02/02 07:18:24;;;;;;;;;;;6.90;99.90;;;;;;5080134;28;19964;-60
2023/02/02 07:20:51;;;;;;;;;;;6.90;99.90;;;;;;5080478;28;19966;-58
2023/02/02 07:23:18;;;;;;;;;;;6.90;99.90;;;;;;5080838;28;19924;-59
2023/02/02 07:25:44;;;;;;;;;;;6.90;99.90;;;;;;5082709;28;19946;-59
2023/02/02 07:28:11;;;;;;;;;;;7.00;99.90;;;;;;5081205;28;19919;-61
2023/02/02 07:30:37;;;;;;;;;;;7.00;99.90;;;;;;5080970;28;19920;-61
2023/02/02 07:33:04;;;;;;;;;;;7.40;99.90;;;;;;5062933;28;19924;-61
2023/02/02 07:35:32;;;;;;;;;;;7.10;99.90;;;;;;5077579;28;19966;-61
2023/02/02 07:37:58;;;;;;;;;;;7.00;99.90;;;;;;5073308;28;20336;-61
2023/02/02 07:40:25;;;;;;;;;;;7.00;99.90;;;;;;5075879;28;19927;-63
2023/02/02 07:42:51;;;;;;;;;;;7.10;99.90;;;;;;5078891;28;19919;-63
2023/02/02 07:45:18;;;;;;;;;;;7.20;99.90;;;;;;5080750;28;19920;-64
2023/02/02 07:47:44;;;;;;;;;;;7.20;99.90;;;;;;5081401;28;19920;-64
2023/02/02 07:50:11;;;;;;;;;;;7.30;99.90;;;;;;5076347;28;20276;-64
2023/02/02 07:52:39;;;;;;;;;;;7.40;99.90;;;;;;5081020;28;19925;-65
2023/02/02 07:55:06;;;;;;;;;;;7.30;99.90;;;;;;5079988;28;20314;-67
2023/02/02 07:57:32;;;;;;;;;;;7.40;99.90;;;;;;5081475;28;19931;-68
2023/02/02 07:59:59;;;;;;;;;;;7.50;99.90;;;;;;5080909;28;19939;-68
2023/02/02 08:02:26;;;;;;;;;;;7.50;99.90;;;;;;5079847;28;19920;-65
2023/02/02 08:04:52;;;;;;;;;;;7.50;99.90;;;;;;5080662;28;19920;-64
2023/02/02 08:07:20;;;;;;;;;;;7.50;99.90;;;;;;5081935;28;19930;-66
2023/02/02 08:09:48;;;;;;;;;;;7.50;99.90;;;;;;5080528;28;19921;-64
2023/02/02 08:12:14;;;;;;;;;;;7.50;99.90;;;;;;5080033;28;19964;-64
2023/02/02 08:14:41;;;;;;;;;;;7.40;99.90;;;;;;5075758;28;19924;-65
2023/02/02 08:17:08;;;;;;;;;;;7.40;99.90;;;;;;5080750;28;19924;-65
2023/02/02 08:19:35;;;;;;;;;;;7.30;99.90;;;;;;5078592;28;19924;-65
2023/02/02 08:22:01;;;;;;;;;;;7.30;99.90;;;;;;5071179;28;19921;-65
2023/02/02 08:24:28;;;;;;;;;;;7.30;99.90;;;;;;5082521;28;19920;-65
2023/02/02 08:26:55;;;;;;;;;;;7.40;99.90;;;;;;5080084;28;19924;-64
2023/02/02 08:29:22;;;;;;;;;;;7.40;99.90;;;;;;5087032;28;19946;-65
2023/02/02 08:31:49;;;;;;;;;;;7.50;99.90;;;;;;5085603;28;19920;-66
2023/02/02 08:34:15;;;;;;;;;;;7.50;99.90;;;;;;5082498;28;19921;-66
2023/02/02 08:36:42;;;;;;;;;;;7.40;99.90;;;;;;5078174;28;19921;-67
2023/02/02 08:39:11;;;;;;;;;;;7.40;99.90;;;;;;5082410;28;19924;-64
2023/02/02 08:41:37;;;;;;;;;;;7.50;99.90;;;;;;5085735;28;19921;-68
2023/02/02 08:44:06;;;;;;;;;;;7.50;99.90;;;;;;5085767;28;19920;-69
2023/02/02 08:46:33;;;;;;;;;;;7.60;99.90;;;;;;5083745;28;19925;-69
2023/02/02 08:48:59;;;;;;;;;;;7.60;99.90;;;;;;5082744;28;19920;-68
2023/02/02 08:51:26;;;;;;;;;;;7.50;99.90;;;;;;5085958;28;19920;-69
2023/02/02 08:53:52;;;;;;;;;;;7.50;99.90;;;;;;5072838;28;19973;-61
2023/02/02 08:56:20;;;;;;;;;;;7.50;99.90;;;;;;5077158;28;20567;-64
2023/02/02 08:58:47;;;;;;;;;;;7.00;99.90;;;;;;5079665;28;19973;-60
2023/02/02 09:01:15;;;;;;;;;;;7.40;99.90;;;;;;5084568;28;20298;-62
2023/02/02 09:03:42;;;;;;;;;;;7.30;99.90;;;;;;5082655;28;19920;-58
2023/02/02 09:06:10;;;;;;;;;;;7.30;99.90;;;;;;5086781;28;19943;-62
2023/02/02 09:08:37;;;;;;;;;;;7.20;99.90;;;;;;5073885;28;19927;-62
2023/02/02 09:11:04;;;;;;;;;;;7.20;99.90;;;;;;5073478;28;19977;-60
2023/02/02 09:13:31;;;;;;;;;;;7.20;99.90;;;;;;5084977;28;19920;-60
2023/02/02 09:15:59;;;;;;;;;;;7.20;99.90;;;;;;5079428;28;19928;-60
2023/02/02 09:18:27;;;;;;;;;;;7.20;99.90;;;;;;5082972;28;19969;-60
2023/02/02 09:20:54;;;;;;;;;;;7.30;99.90;;;;;;5082569;28;19920;-59
2023/02/02 09:23:21;;;;;;;;;;;7.30;99.90;;;;;;5086058;28;20378;-61
2023/02/02 09:25:47;;;;;;;;;;;7.30;99.90;;;;;;5077631;28;19928;-60
2023/02/02 09:28:14;;;;;;;;;;;7.30;99.90;;;;;;5077779;28;19974;-59
2023/02/02 09:30:40;;;;;;;;;;;7.30;99.90;;;;;;5084877;28;19924;-59
2023/02/02 09:33:07;;;;;;;;;;;7.30;99.90;;;;;;5077105;28;19920;-60
2023/02/02 09:35:35;;;;;;;;;;;7.20;99.90;;;;;;5080914;28;19924;-62
2023/02/02 09:38:01;;;;;;;;;;;7.20;99.90;;;;;;5084059;28;19920;-61
2023/02/02 09:40:31;;;;;;;;;;;7.20;99.90;;;;;;5085087;28;19950;-64
2023/02/02 09:43:01;;;;;;;;;;;7.20;99.90;;;;;;5083986;28;20018;-65
2023/02/02 09:45:30;;;;;;;;;;;7.20;99.90;;;;;;5084920;28;20317;-62
2023/02/02 09:48:03;;;;;;;;;;;7.20;99.90;;;;;;5084169;28;19920;-62
2023/02/02 09:50:43;;;;;;;;;;;7.20;99.90;;;;;;5082073;28;20536;-62
2023/02/02 09:53:14;;;;;;;;;;;7.20;99.90;;;;;;5078853;28;19923;-62
2023/02/02 09:55:41;;;;;;;;;;;7.20;99.90;;;;;;5084636;28;19920;-60
2023/02/02 09:58:12;;;;;;;;;;;7.10;99.90;;;;;;5082716;28;19924;-60
2023/02/02 10:00:42;;;;;;;;;;;7.20;99.90;;;;;;5083698;28;20347;-61
2023/02/02 10:03:12;;;;;;;;;;;7.20;99.90;;;;;;5082502;28;19924;-62
2023/02/02 10:05:45;;;;;;;;;;;7.20;99.90;;;;;;5083081;28;19924;-62
2023/02/02 10:08:15;;;;;;;;;;;7.20;99.90;;;;;;5083570;28;20341;-63
2023/02/02 10:10:43;;;;;;;;;;;7.20;99.90;;;;;;5078208;28;19927;-62
2023/02/02 10:13:11;;;;;;;;;;;7.20;99.90;;;;;;5082127;28;20429;-63
2023/02/02 10:15:40;;;;;;;;;;;7.20;99.90;;;;;;5083331;28;20356;-66
2023/02/02 10:18:11;;;;;;;;;;;7.20;99.90;;;;;;5079798;28;19974;-62
2023/02/02 10:20:43;;;;;;;;;;;7.20;99.90;;;;;;5083740;28;19920;-63
2023/02/02 10:23:13;;;;;;;;;;;7.20;99.90;;;;;;5083421;28;19924;-60
2023/02/02 10:25:43;;;;;;;;;;;7.20;99.90;;;;;;5077832;28;19920;-61
2023/02/02 10:28:14;;;;;;;;;;;7.20;99.90;;;;;;5083931;28;19931;-60
2023/02/02 10:30:44;;;;;;;;;;;7.20;99.90;;;;;;5081898;28;19924;-59
2023/02/02 10:33:15;;;;;;;;;;;7.30;99.90;;;;;;5080629;28;20387;-61
2023/02/02 10:35:44;;;;;;;;;;;7.30;99.90;;;;;;5078926;28;20330;-61
2023/02/02 10:38:18;;;;;;;;;;;7.20;99.90;;;;;;5080327;28;20393;-59
2023/02/02 10:40:51;;;;;;;;;;;7.20;99.90;;;;;;5083306;28;19928;-60
2023/02/02 10:43:47;;;;;;;;;;;7.20;99.90;;;;;;5082673;28;19920;-60
2023/02/02 10:46:16;;;;;;;;;;;7.20;99.90;;;;;;5079163;28;19927;-59
2023/02/02 10:48:44;;;;;;;;;;;7.30;99.90;;;;;;5078572;28;20294;-62
2023/02/02 10:51:15;;;;;;;;;;;7.20;99.90;;;;;;5078541;28;19946;-61
2023/02/02 10:53:49;;;;;;;;;;;7.30;99.90;;;;;;5075338;28;20313;-58
2023/02/02 10:56:17;;;;;;;;;;;7.30;99.90;;;;;;5079700;28;19986;-60
2023/02/02 10:58:48;;;;;;;;;;;7.20;99.90;;;;;;5077756;28;19920;-62
2023/02/02 11:01:16;;;;;;;;;;;7.30;99.90;;;;;;5074846;28;20454;-61
2023/02/02 11:03:43;;;;;;;;;;;7.30;99.90;;;;;;5078731;28;20011;-61
2023/02/02 11:08:58;;;;;;;;;;;7.40;99.90;;;;;;5077435;28;19926;-60
2023/02/02 11:11:26;;;;;;;;;;;7.40;99.90;;;;;;5077990;28;19924;-59
2023/02/02 11:13:56;;;;;;;;;;;7.40;99.90;;;;;;5081638;28;19951;-61
2023/02/02 11:16:25;;;;;;;;;;;7.30;99.90;;;;;;5082946;28;19927;-61
2023/02/02 11:18:52;;;;;;;;;;;7.30;99.90;;;;;;5081001;28;19920;-58
2023/02/02 11:21:20;;;;;;;;;;;7.30;99.90;;;;;;5082722;28;19920;-60
2023/02/02 11:23:54;;;;;;;;;;;7.30;99.90;;;;;;5077889;28;19995;-63
2023/02/02 11:26:23;;;;;;;;;;;7.40;99.90;;;;;;5078674;28;19922;-62
2023/02/02 11:28:50;;;;;;;;;;;7.40;99.90;;;;;;5079008;28;19924;-62
2023/02/02 11:31:30;;;;;;;;;;;7.30;99.90;;;;;;5079701;28;19928;-61
2023/02/02 11:34:08;;;;;;;;;;;7.40;99.90;;;;;;5083811;28;19920;-61
2023/02/02 11:36:35;;;;;;;;;;;7.40;99.90;;;;;;5082302;28;20344;-61
2023/02/02 11:39:19;;;;;;;;;;;7.50;99.90;;;;;;5080055;28;19920;-60
2023/02/02 11:41:47;;;;;;;;;;;7.50;99.90;;;;;;5080259;28;19950;-61
2023/02/02 11:44:19;;;;;;;;;;;7.50;99.90;;;;;;5077149;28;19924;-62
2023/02/02 11:46:47;;;;;;;;;;;7.50;99.90;;;;;;5078559;28;20390;-65
2023/02/02 11:49:15;;;;;;;;;;;7.50;99.90;;;;;;5078857;28;19920;-60
2023/02/02 11:51:42;;;;;;;;;;;7.50;99.90;;;;;;5079930;28;19921;-60
2023/02/02 11:54:16;;;;;;;;;;;7.50;99.90;;;;;;5080977;28;19973;-62
2023/02/02 11:56:48;;;;;;;;;;;7.50;99.90;;;;;;5083586;28;19920;-62
2023/02/02 11:59:28;;;;;;;;;;;7.50;99.90;;;;;;5079401;28;20272;-61
2023/02/02 12:02:10;;;;;;;;;;;7.50;99.90;;;;;;5077289;28;19920;-64
2023/02/02 12:04:36;;;;;;;;;;;7.60;99.90;;;;;;5083932;28;19920;-63
2023/02/02 12:07:16;;;;;;;;;;;7.60;99.90;;;;;;5086724;28;19928;-63
2023/02/02 12:09:43;;;;;;;;;;;7.60;99.90;;;;;;5082620;28;19935;-62
2023/02/02 12:12:17;;;;;;;;;;;7.60;99.90;;;;;;5084727;28;19966;-63
2023/02/02 12:14:50;;;;;;;;;;;7.60;99.90;;;;;;5086702;28;19969;-63
2023/02/02 12:17:21;;;;;;;;;;;7.70;99.90;;;;;;5088939;28;20370;-63
2023/02/02 12:20:05;;;;;;;;;;;7.70;99.90;;;;;;5082716;28;19924;-63
2023/02/02 12:22:40;;;;;;;;;;;7.70;99.90;;;;;;5078401;28;20352;-62
2023/02/02 12:25:14;;;;;;;;;;;7.70;99.90;;;;;;5085074;28;19920;-61
2023/02/02 12:27:45;;;;;;;;;;;7.70;99.90;;;;;;5082167;28;19925;-61
2023/02/02 12:30:21;;;;;;;;;;;7.70;99.90;;;;;;5082751;28;19943;-62
2023/02/02 12:32:54;;;;;;;;;;;7.70;99.90;;;;;;5089321;28;20478;-63
2023/02/02 12:35:28;;;;;;;;;;;7.70;99.90;;;;;;5074008;28;19921;-63
2023/02/02 12:38:02;;;;;;;;;;;7.70;99.90;;;;;;5086275;28;19920;-63
2023/02/02 12:40:35;;;;;;;;;;;7.70;99.90;;;;;;5078338;28;19932;-60
2023/02/02 12:43:06;;;;;;;;;;;7.70;99.90;;;;;;5080072;28;20041;-61
2023/02/02 12:45:39;;;;;;;;;;;7.60;99.90;;;;;;5082517;28;19920;-61
2023/02/02 12:48:11;;;;;;;;;;;7.70;99.90;;;;;;5083751;28;19927;-61
2023/02/02 12:50:41;;;;;;;;;;;7.70;99.90;;;;;;5080138;28;20010;-60
2023/02/02 12:53:16;;;;;;;;;;;7.70;99.90;;;;;;5083237;28;19922;-60
2023/02/02 12:55:44;;;;;;;;;;;7.70;99.90;;;;;;5080818;28;20014;-60
2023/02/02 12:58:20;;;;;;;;;;;7.70;99.90;;;;;;5084514;28;19920;-61
2023/02/02 13:01:04;;;;;;;;;;;7.60;99.90;;;;;;5083808;28;19924;-61
2023/02/02 13:03:36;;;;;;;;;;;7.70;99.90;;;;;;5070152;28;19928;-60
2023/02/02 13:06:15;;;;;;;;;;;7.60;99.90;;;;;;5082721;28;19947;-61
2023/02/02 13:08:45;;;;;;;;;;;7.60;99.90;;;;;;5082962;28;20011;-61
2023/02/02 13:11:29;;;;;;;;;;;7.60;99.90;;;;;;5082546;28;19926;-61
2023/02/02 13:13:57;;;;;;;;;;;7.70;99.90;;;;;;5081749;28;20027;-61
2023/02/02 13:16:24;;;;;;;;;;;7.60;99.90;;;;;;5082016;28;20375;-60
2023/02/02 13:18:55;;;;;;;;;;;7.70;99.90;;;;;;5082378;28;20534;-65
2023/02/02 13:21:23;;;;;;;;;;;7.90;99.90;;;;;;5081759;28;19924;-62
2023/02/02 13:23:50;;;;;;;;;;;7.80;99.90;;;;;;5083753;28;20022;-65
2023/02/02 13:26:18;;;;;;;;;;;7.80;99.90;;;;;;5084354;28;19989;-61
2023/02/02 13:28:49;;;;;;;;;;;7.70;99.90;;;;;;5078352;28;19925;-61
2023/02/02 13:31:17;;;;;;;;;;;7.60;99.90;;;;;;5082040;28;20546;-62
2023/02/02 13:33:47;;;;;;;;;;;7.70;99.90;;;;;;5077085;28;19954;-60
2023/02/02 13:36:18;;;;;;;;;;;7.70;99.90;;;;;;5080855;28;20022;-60
2023/02/02 13:38:44;;;;;;;;;;;7.70;99.90;;;;;;5079485;28;19960;-58
2023/02/02 13:41:12;;;;;;;;;;;7.80;99.90;;;;;;5079411;28;19927;-60
2023/02/02 13:43:43;;;;;;;;;;;7.70;99.90;;;;;;5076963;28;20501;-60
2023/02/02 13:46:16;;;;;;;;;;;7.70;99.90;;;;;;5086283;28;19967;-60
2023/02/02 13:48:50;;;;;;;;;;;7.70;99.90;;;;;;5075850;28;20342;-62
2023/02/02 13:51:38;;;;;;;;;;;7.70;99.90;;;;;;5073481;28;19924;-63
2023/02/02 13:54:25;;;;;;;;;;;7.60;99.90;;;;;;5063517;28;19959;-60
2023/02/02 13:56:56;;;;;;;;;;;7.60;99.90;;;;;;5074182;28;20363;-60
2023/02/02 13:59:28;;;;;;;;;;;7.60;99.90;;;;;;5080346;28;19921;-62
2023/02/02 14:01:57;;;;;;;;;;;7.60;99.90;;;;;;5082901;28;19924;-60
2023/02/02 14:04:26;;;;;;;;;;;7.60;99.90;;;;;;5084038;28;19920;-61
2023/02/02 14:06:56;;;;;;;;;;;7.50;99.90;;;;;;5083231;28;20340;-61
2023/02/02 14:09:27;;;;;;;;;;;7.60;99.90;;;;;;5083450;28;19955;-63
2023/02/02 14:11:56;;;;;;;;;;;7.50;99.90;;;;;;5080712;28;20366;-63
2023/02/02 14:14:33;;;;;;;;;;;7.60;99.90;;;;;;5083429;28;19920;-62